sensor_id;sensor_type;location;lat;lon;timestamp;P1;durP1;ratioP1;P2;durP2;ratioP2
35990;SDS011;22064;42.672;23.282;2024-02-26T00:00:07;37.33;;;16.85;;
35990;SDS011;22064;42.672;23.282;2024-02-26T00:02:39;33.70;;;17.20;;
35990;SDS011;22064;42.672;23.282;2024-02-26T00:05:06;29.67;;;15.18;;
35990;SDS011;22064;42.672;23.282;2024-02-26T00:07:32;30.77;;;16.92;;
35990;SDS011;22064;42.672;23.282;2024-02-26T00:09:58;33.95;;;16.13;;
35990;SDS011;22064;42.672;23.282;2024-02-26T00:12:24;32.78;;;16.58;;
35990;SDS011;22064;42.672;23.282;2024-02-26T00:14:50;33.58;;;15.63;;
35990;SDS011;22064;42.672;23.282;2024-02-26T00:17:18;32.22;;;16.15;;
35990;SDS011;22064;42.672;23.282;2024-02-26T00:19:43;32.72;;;16.58;;
35990;SDS011;22064;42.672;23.282;2024-02-26T00:22:09;31.05;;;16.50;;
35990;SDS011;22064;42.672;23.282;2024-02-26T00:24:35;31.58;;;16.52;;
35990;SDS011;22064;42.672;23.282;2024-02-26T00:27:01;34.03;;;17.13;;
35990;SDS011;22064;42.672;23.282;2024-02-26T00:29:26;32.92;;;16.38;;
35990;SDS011;22064;42.672;23.282;2024-02-26T00:31:52;30.52;;;15.98;;
35990;SDS011;22064;42.672;23.282;2024-02-26T00:34:18;29.52;;;15.30;;
35990;SDS011;22064;42.672;23.282;2024-02-26T00:36:44;31.05;;;15.75;;
35990;SDS011;22064;42.672;23.282;2024-02-26T00:39:11;30.23;;;15.20;;
35990;SDS011;22064;42.672;23.282;2024-02-26T00:41:40;34.70;;;15.75;;
35990;SDS011;22064;42.672;23.282;2024-02-26T00:44:06;30.55;;;15.25;;
35990;SDS011;22064;42.672;23.282;2024-02-26T00:46:32;37.83;;;16.85;;
35990;SDS011;22064;42.672;23.282;2024-02-26T00:48:58;33.95;;;17.40;;
35990;SDS011;22064;42.672;23.282;2024-02-26T00:51:25;34.88;;;17.15;;
35990;SDS011;22064;42.672;23.282;2024-02-26T00:53:51;32.13;;;15.95;;
35990;SDS011;22064;42.672;23.282;2024-02-26T00:56:17;31.35;;;16.30;;
35990;SDS011;22064;42.672;23.282;2024-02-26T00:58:43;30.70;;;15.07;;
35990;SDS011;22064;42.672;23.282;2024-02-26T01:01:09;29.20;;;14.65;;
35990;SDS011;22064;42.672;23.282;2024-02-26T01:03:35;29.50;;;16.08;;
35990;SDS011;22064;42.672;23.282;2024-02-26T01:06:01;29.92;;;15.13;;
35990;SDS011;22064;42.672;23.282;2024-02-26T01:08:27;29.92;;;14.57;;
35990;SDS011;22064;42.672;23.282;2024-02-26T01:10:53;29.35;;;14.50;;
35990;SDS011;22064;42.672;23.282;2024-02-26T01:13:19;27.65;;;13.98;;
35990;SDS011;22064;42.672;23.282;2024-02-26T01:15:45;27.15;;;14.45;;
35990;SDS011;22064;42.672;23.282;2024-02-26T01:18:11;28.95;;;14.50;;
35990;SDS011;22064;42.672;23.282;2024-02-26T01:20:37;31.08;;;13.98;;
35990;SDS011;22064;42.672;23.282;2024-02-26T01:23:03;30.83;;;14.55;;
35990;SDS011;22064;42.672;23.282;2024-02-26T01:25:29;26.48;;;15.27;;
35990;SDS011;22064;42.672;23.282;2024-02-26T01:27:55;26.92;;;14.55;;
35990;SDS011;22064;42.672;23.282;2024-02-26T01:30:21;29.52;;;15.13;;
35990;SDS011;22064;42.672;23.282;2024-02-26T01:32:47;28.80;;;14.40;;
35990;SDS011;22064;42.672;23.282;2024-02-26T01:35:13;31.92;;;14.73;;
35990;SDS011;22064;42.672;23.282;2024-02-26T01:37:39;28.27;;;14.40;;
35990;SDS011;22064;42.672;23.282;2024-02-26T01:40:05;30.40;;;15.23;;
35990;SDS011;22064;42.672;23.282;2024-02-26T01:42:32;29.98;;;14.77;;
35990;SDS011;22064;42.672;23.282;2024-02-26T01:44:59;28.02;;;15.25;;
35990;SDS011;22064;42.672;23.282;2024-02-26T01:47:25;27.38;;;14.35;;
35990;SDS011;22064;42.672;23.282;2024-02-26T01:49:53;27.13;;;14.70;;
35990;SDS011;22064;42.672;23.282;2024-02-26T01:52:19;29.48;;;15.27;;
35990;SDS011;22064;42.672;23.282;2024-02-26T01:54:47;30.50;;;14.90;;
35990;SDS011;22064;42.672;23.282;2024-02-26T01:57:13;29.42;;;15.15;;
35990;SDS011;22064;42.672;23.282;2024-02-26T01:59:40;30.23;;;15.60;;
35990;SDS011;22064;42.672;23.282;2024-02-26T02:02:07;28.80;;;14.10;;
35990;SDS011;22064;42.672;23.282;2024-02-26T02:04:37;28.15;;;14.65;;
35990;SDS011;22064;42.672;23.282;2024-02-26T02:07:03;27.20;;;14.10;;
35990;SDS011;22064;42.672;23.282;2024-02-26T02:09:30;28.10;;;14.77;;
35990;SDS011;22064;42.672;23.282;2024-02-26T02:11:56;29.92;;;15.18;;
35990;SDS011;22064;42.672;23.282;2024-02-26T02:14:22;28.52;;;14.10;;
35990;SDS011;22064;42.672;23.282;2024-02-26T02:16:50;29.95;;;14.93;;
35990;SDS011;22064;42.672;23.282;2024-02-26T02:19:16;31.38;;;14.77;;
35990;SDS011;22064;42.672;23.282;2024-02-26T02:21:42;27.20;;;14.15;;
35990;SDS011;22064;42.672;23.282;2024-02-26T02:24:08;28.55;;;14.90;;
35990;SDS011;22064;42.672;23.282;2024-02-26T02:26:34;29.45;;;16.02;;
35990;SDS011;22064;42.672;23.282;2024-02-26T02:29:00;32.05;;;15.45;;
35990;SDS011;22064;42.672;23.282;2024-02-26T02:31:27;29.50;;;15.00;;
35990;SDS011;22064;42.672;23.282;2024-02-26T02:33:53;32.55;;;15.23;;
35990;SDS011;22064;42.672;23.282;2024-02-26T02:36:19;30.38;;;14.93;;
35990;SDS011;22064;42.672;23.282;2024-02-26T02:38:48;28.65;;;14.95;;
35990;SDS011;22064;42.672;23.282;2024-02-26T02:41:18;26.70;;;14.70;;
35990;SDS011;22064;42.672;23.282;2024-02-26T02:43:44;30.60;;;15.75;;
35990;SDS011;22064;42.672;23.282;2024-02-26T02:46:10;28.35;;;15.48;;
35990;SDS011;22064;42.672;23.282;2024-02-26T02:48:37;29.95;;;15.38;;
35990;SDS011;22064;42.672;23.282;2024-02-26T02:51:04;28.30;;;14.80;;
35990;SDS011;22064;42.672;23.282;2024-02-26T02:53:30;32.20;;;16.05;;
35990;SDS011;22064;42.672;23.282;2024-02-26T02:55:56;30.70;;;15.40;;
35990;SDS011;22064;42.672;23.282;2024-02-26T02:58:22;30.30;;;15.77;;
35990;SDS011;22064;42.672;23.282;2024-02-26T03:00:48;29.55;;;15.85;;
35990;SDS011;22064;42.672;23.282;2024-02-26T03:03:14;28.95;;;14.80;;
35990;SDS011;22064;42.672;23.282;2024-02-26T03:05:39;30.63;;;15.88;;
35990;SDS011;22064;42.672;23.282;2024-02-26T03:08:05;27.83;;;15.00;;
35990;SDS011;22064;42.672;23.282;2024-02-26T03:10:31;29.85;;;15.68;;
35990;SDS011;22064;42.672;23.282;2024-02-26T03:12:57;30.15;;;15.80;;
35990;SDS011;22064;42.672;23.282;2024-02-26T03:15:23;30.30;;;15.77;;
35990;SDS011;22064;42.672;23.282;2024-02-26T03:17:49;32.50;;;15.80;;
35990;SDS011;22064;42.672;23.282;2024-02-26T03:20:15;27.95;;;14.20;;
35990;SDS011;22064;42.672;23.282;2024-02-26T03:22:43;30.90;;;15.75;;
35990;SDS011;22064;42.672;23.282;2024-02-26T03:25:09;29.92;;;15.10;;
35990;SDS011;22064;42.672;23.282;2024-02-26T03:27:35;30.35;;;14.82;;
35990;SDS011;22064;42.672;23.282;2024-02-26T03:30:01;29.52;;;14.95;;
35990;SDS011;22064;42.672;23.282;2024-02-26T03:32:28;28.90;;;15.23;;
35990;SDS011;22064;42.672;23.282;2024-02-26T03:34:54;30.90;;;15.85;;
35990;SDS011;22064;42.672;23.282;2024-02-26T03:37:21;30.85;;;15.68;;
35990;SDS011;22064;42.672;23.282;2024-02-26T03:39:47;32.15;;;15.73;;
35990;SDS011;22064;42.672;23.282;2024-02-26T03:42:13;30.50;;;15.38;;
35990;SDS011;22064;42.672;23.282;2024-02-26T03:44:39;29.05;;;15.57;;
35990;SDS011;22064;42.672;23.282;2024-02-26T03:47:05;29.77;;;16.10;;
35990;SDS011;22064;42.672;23.282;2024-02-26T03:49:31;30.98;;;16.77;;
35990;SDS011;22064;42.672;23.282;2024-02-26T03:51:57;29.13;;;16.30;;
35990;SDS011;22064;42.672;23.282;2024-02-26T03:54:23;32.50;;;17.08;;
35990;SDS011;22064;42.672;23.282;2024-02-26T03:56:49;31.02;;;16.83;;
35990;SDS011;22064;42.672;23.282;2024-02-26T03:59:15;28.98;;;16.88;;
35990;SDS011;22064;42.672;23.282;2024-02-26T04:01:50;30.55;;;16.15;;
35990;SDS011;22064;42.672;23.282;2024-02-26T04:04:16;31.67;;;17.73;;
35990;SDS011;22064;42.672;23.282;2024-02-26T04:06:46;32.38;;;16.75;;
35990;SDS011;22064;42.672;23.282;2024-02-26T04:09:15;31.25;;;16.95;;
35990;SDS011;22064;42.672;23.282;2024-02-26T04:11:41;32.22;;;17.83;;
35990;SDS011;22064;42.672;23.282;2024-02-26T04:14:09;30.95;;;16.23;;
35990;SDS011;22064;42.672;23.282;2024-02-26T04:16:36;33.78;;;17.05;;
35990;SDS011;22064;42.672;23.282;2024-02-26T04:19:02;29.38;;;16.60;;
35990;SDS011;22064;42.672;23.282;2024-02-26T04:21:28;33.22;;;15.85;;
35990;SDS011;22064;42.672;23.282;2024-02-26T04:23:54;29.92;;;16.63;;
35990;SDS011;22064;42.672;23.282;2024-02-26T04:26:21;34.60;;;17.98;;
35990;SDS011;22064;42.672;23.282;2024-02-26T04:28:47;33.80;;;16.60;;
35990;SDS011;22064;42.672;23.282;2024-02-26T04:31:13;32.17;;;16.85;;
35990;SDS011;22064;42.672;23.282;2024-02-26T04:33:39;28.45;;;16.45;;
35990;SDS011;22064;42.672;23.282;2024-02-26T04:36:12;30.33;;;16.80;;
35990;SDS011;22064;42.672;23.282;2024-02-26T04:38:39;31.30;;;16.90;;
35990;SDS011;22064;42.672;23.282;2024-02-26T04:41:05;30.63;;;16.90;;
35990;SDS011;22064;42.672;23.282;2024-02-26T04:43:31;34.20;;;18.73;;
35990;SDS011;22064;42.672;23.282;2024-02-26T04:45:57;31.08;;;16.35;;
35990;SDS011;22064;42.672;23.282;2024-02-26T04:48:23;34.08;;;16.92;;
35990;SDS011;22064;42.672;23.282;2024-02-26T04:50:49;31.83;;;18.02;;
35990;SDS011;22064;42.672;23.282;2024-02-26T04:53:15;36.13;;;20.67;;
35990;SDS011;22064;42.672;23.282;2024-02-26T04:55:41;35.33;;;19.85;;
35990;SDS011;22064;42.672;23.282;2024-02-26T04:58:07;37.70;;;21.10;;
35990;SDS011;22064;42.672;23.282;2024-02-26T05:00:33;38.60;;;21.35;;
35990;SDS011;22064;42.672;23.282;2024-02-26T05:02:59;39.40;;;20.80;;
35990;SDS011;22064;42.672;23.282;2024-02-26T05:05:25;44.15;;;22.35;;
35990;SDS011;22064;42.672;23.282;2024-02-26T05:07:51;44.95;;;24.48;;
35990;SDS011;22064;42.672;23.282;2024-02-26T05:10:17;44.83;;;24.02;;
35990;SDS011;22064;42.672;23.282;2024-02-26T05:12:43;43.83;;;25.48;;
35990;SDS011;22064;42.672;23.282;2024-02-26T05:15:09;46.72;;;26.13;;
35990;SDS011;22064;42.672;23.282;2024-02-26T05:17:36;48.00;;;26.52;;
35990;SDS011;22064;42.672;23.282;2024-02-26T05:20:01;46.53;;;26.30;;
35990;SDS011;22064;42.672;23.282;2024-02-26T05:22:27;57.70;;;30.50;;
35990;SDS011;22064;42.672;23.282;2024-02-26T05:24:53;62.55;;;34.33;;
35990;SDS011;22064;42.672;23.282;2024-02-26T05:27:19;55.53;;;32.00;;
35990;SDS011;22064;42.672;23.282;2024-02-26T05:29:45;54.65;;;30.63;;
35990;SDS011;22064;42.672;23.282;2024-02-26T05:32:11;55.33;;;29.55;;
35990;SDS011;22064;42.672;23.282;2024-02-26T05:34:37;53.88;;;29.90;;
35990;SDS011;22064;42.672;23.282;2024-02-26T05:37:03;53.25;;;29.75;;
35990;SDS011;22064;42.672;23.282;2024-02-26T05:39:29;56.05;;;32.00;;
35990;SDS011;22064;42.672;23.282;2024-02-26T05:41:55;58.67;;;32.10;;
35990;SDS011;22064;42.672;23.282;2024-02-26T05:44:22;56.13;;;32.97;;
35990;SDS011;22064;42.672;23.282;2024-02-26T05:46:48;57.75;;;32.88;;
35990;SDS011;22064;42.672;23.282;2024-02-26T05:49:14;67.18;;;37.63;;
35990;SDS011;22064;42.672;23.282;2024-02-26T05:51:40;62.13;;;33.92;;
35990;SDS011;22064;42.672;23.282;2024-02-26T05:54:07;62.17;;;34.80;;
35990;SDS011;22064;42.672;23.282;2024-02-26T05:56:42;58.33;;;32.15;;
35990;SDS011;22064;42.672;23.282;2024-02-26T05:59:25;63.10;;;34.00;;
35990;SDS011;22064;42.672;23.282;2024-02-26T06:02:04;59.88;;;32.55;;
35990;SDS011;22064;42.672;23.282;2024-02-26T06:04:37;59.20;;;32.60;;
35990;SDS011;22064;42.672;23.282;2024-02-26T06:07:06;63.75;;;35.40;;
35990;SDS011;22064;42.672;23.282;2024-02-26T06:09:45;73.38;;;35.67;;
35990;SDS011;22064;42.672;23.282;2024-02-26T06:12:39;66.18;;;37.50;;
35990;SDS011;22064;42.672;23.282;2024-02-26T06:15:21;63.13;;;33.67;;
35990;SDS011;22064;42.672;23.282;2024-02-26T06:18:19;57.97;;;35.47;;
35990;SDS011;22064;42.672;23.282;2024-02-26T06:21:30;57.97;;;35.53;;
35990;SDS011;22064;42.672;23.282;2024-02-26T06:24:04;64.63;;;38.25;;
35990;SDS011;22064;42.672;23.282;2024-02-26T06:26:33;54.00;;;34.65;;
35990;SDS011;22064;42.672;23.282;2024-02-26T06:29:06;55.47;;;33.20;;
35990;SDS011;22064;42.672;23.282;2024-02-26T06:31:35;55.50;;;32.65;;
35990;SDS011;22064;42.672;23.282;2024-02-26T06:34:35;46.50;;;27.15;;
35990;SDS011;22064;42.672;23.282;2024-02-26T06:37:41;50.03;;;29.48;;
35990;SDS011;22064;42.672;23.282;2024-02-26T06:40:26;50.28;;;29.77;;
35990;SDS011;22064;42.672;23.282;2024-02-26T06:42:55;51.10;;;29.45;;
35990;SDS011;22064;42.672;23.282;2024-02-26T06:45:59;49.85;;;27.63;;
35990;SDS011;22064;42.672;23.282;2024-02-26T06:48:34;47.08;;;27.98;;
35990;SDS011;22064;42.672;23.282;2024-02-26T06:51:05;51.75;;;28.42;;
35990;SDS011;22064;42.672;23.282;2024-02-26T06:53:55;48.93;;;28.90;;
35990;SDS011;22064;42.672;23.282;2024-02-26T06:56:27;48.58;;;26.17;;
35990;SDS011;22064;42.672;23.282;2024-02-26T06:58:56;43.97;;;25.05;;
35990;SDS011;22064;42.672;23.282;2024-02-26T07:01:23;45.30;;;24.90;;
35990;SDS011;22064;42.672;23.282;2024-02-26T07:03:57;41.92;;;24.25;;
35990;SDS011;22064;42.672;23.282;2024-02-26T07:06:24;39.88;;;21.85;;
35990;SDS011;22064;42.672;23.282;2024-02-26T07:09:18;37.65;;;21.20;;
35990;SDS011;22064;42.672;23.282;2024-02-26T07:11:45;36.25;;;19.70;;
35990;SDS011;22064;42.672;23.282;2024-02-26T07:14:31;35.80;;;20.38;;
35990;SDS011;22064;42.672;23.282;2024-02-26T07:17:05;31.92;;;18.83;;
35990;SDS011;22064;42.672;23.282;2024-02-26T07:19:49;37.33;;;18.13;;
35990;SDS011;22064;42.672;23.282;2024-02-26T07:22:30;31.83;;;17.75;;
35990;SDS011;22064;42.672;23.282;2024-02-26T07:24:57;52.20;;;26.98;;
35990;SDS011;22064;42.672;23.282;2024-02-26T07:27:27;33.50;;;17.48;;
35990;SDS011;22064;42.672;23.282;2024-02-26T07:30:33;45.58;;;26.50;;
35990;SDS011;22064;42.672;23.282;2024-02-26T07:33:01;54.35;;;27.77;;
35990;SDS011;22064;42.672;23.282;2024-02-26T07:35:29;49.55;;;27.58;;
35990;SDS011;22064;42.672;23.282;2024-02-26T07:38:08;45.10;;;25.42;;
35990;SDS011;22064;42.672;23.282;2024-02-26T07:40:42;45.35;;;26.48;;
35990;SDS011;22064;42.672;23.282;2024-02-26T07:43:08;41.45;;;24.23;;
35990;SDS011;22064;42.672;23.282;2024-02-26T07:45:39;28.70;;;14.88;;
35990;SDS011;22064;42.672;23.282;2024-02-26T07:48:09;29.30;;;14.43;;
35990;SDS011;22064;42.672;23.282;2024-02-26T07:50:43;83.03;;;55.53;;
35990;SDS011;22064;42.672;23.282;2024-02-26T07:53:11;76.35;;;48.70;;
35990;SDS011;22064;42.672;23.282;2024-02-26T07:55:40;69.30;;;41.28;;
35990;SDS011;22064;42.672;23.282;2024-02-26T07:58:09;74.07;;;45.58;;
35990;SDS011;22064;42.672;23.282;2024-02-26T08:00:36;71.32;;;44.45;;
35990;SDS011;22064;42.672;23.282;2024-02-26T08:03:10;66.45;;;39.80;;
35990;SDS011;22064;42.672;23.282;2024-02-26T08:05:41;61.15;;;36.10;;
35990;SDS011;22064;42.672;23.282;2024-02-26T08:08:12;65.70;;;35.50;;
35990;SDS011;22064;42.672;23.282;2024-02-26T08:10:54;59.92;;;34.10;;
35990;SDS011;22064;42.672;23.282;2024-02-26T08:13:39;53.40;;;33.25;;
35990;SDS011;22064;42.672;23.282;2024-02-26T08:16:05;61.97;;;30.65;;
35990;SDS011;22064;42.672;23.282;2024-02-26T08:18:36;59.55;;;32.67;;
35990;SDS011;22064;42.672;23.282;2024-02-26T08:21:09;57.35;;;32.88;;
35990;SDS011;22064;42.672;23.282;2024-02-26T08:23:51;56.58;;;31.55;;
35990;SDS011;22064;42.672;23.282;2024-02-26T08:26:32;62.58;;;33.03;;
35990;SDS011;22064;42.672;23.282;2024-02-26T08:28:59;57.55;;;33.30;;
35990;SDS011;22064;42.672;23.282;2024-02-26T08:31:26;58.70;;;31.10;;
35990;SDS011;22064;42.672;23.282;2024-02-26T08:33:56;58.65;;;32.28;;
35990;SDS011;22064;42.672;23.282;2024-02-26T08:36:34;64.15;;;32.33;;
35990;SDS011;22064;42.672;23.282;2024-02-26T08:39:14;56.67;;;33.50;;
35990;SDS011;22064;42.672;23.282;2024-02-26T08:41:44;58.22;;;32.50;;
35990;SDS011;22064;42.672;23.282;2024-02-26T08:44:10;57.72;;;33.25;;
35990;SDS011;22064;42.672;23.282;2024-02-26T08:46:40;60.40;;;34.70;;
35990;SDS011;22064;42.672;23.282;2024-02-26T08:49:35;59.33;;;32.38;;
35990;SDS011;22064;42.672;23.282;2024-02-26T08:52:08;52.70;;;32.05;;
35990;SDS011;22064;42.672;23.282;2024-02-26T08:54:52;55.03;;;30.30;;
35990;SDS011;22064;42.672;23.282;2024-02-26T08:57:34;54.50;;;31.33;;
35990;SDS011;22064;42.672;23.282;2024-02-26T09:00:12;51.65;;;31.50;;
35990;SDS011;22064;42.672;23.282;2024-02-26T09:03:21;57.10;;;31.45;;
35990;SDS011;22064;42.672;23.282;2024-02-26T09:05:58;58.13;;;30.95;;
35990;SDS011;22064;42.672;23.282;2024-02-26T09:08:38;52.40;;;30.88;;
35990;SDS011;22064;42.672;23.282;2024-02-26T09:11:05;54.40;;;32.33;;
35990;SDS011;22064;42.672;23.282;2024-02-26T09:14:15;54.60;;;29.70;;
35990;SDS011;22064;42.672;23.282;2024-02-26T09:16:45;52.72;;;31.55;;
35990;SDS011;22064;42.672;23.282;2024-02-26T09:19:20;54.75;;;31.08;;
35990;SDS011;22064;42.672;23.282;2024-02-26T09:21:47;53.67;;;30.38;;
35990;SDS011;22064;42.672;23.282;2024-02-26T09:24:16;50.40;;;30.27;;
35990;SDS011;22064;42.672;23.282;2024-02-26T09:26:45;51.65;;;29.50;;
35990;SDS011;22064;42.672;23.282;2024-02-26T09:29:16;49.22;;;30.85;;
35990;SDS011;22064;42.672;23.282;2024-02-26T09:32:01;50.70;;;27.10;;
35990;SDS011;22064;42.672;23.282;2024-02-26T09:34:34;45.90;;;24.85;;
35990;SDS011;22064;42.672;23.282;2024-02-26T09:37:10;42.00;;;22.40;;
35990;SDS011;22064;42.672;23.282;2024-02-26T09:39:37;29.83;;;15.45;;
35990;SDS011;22064;42.672;23.282;2024-02-26T09:42:11;39.00;;;20.77;;
35990;SDS011;22064;42.672;23.282;2024-02-26T09:47:31;16.58;;;9.02;;
35990;SDS011;22064;42.672;23.282;2024-02-26T09:50:35;12.20;;;6.93;;
35990;SDS011;22064;42.672;23.282;2024-02-26T09:53:15;12.68;;;6.63;;
35990;SDS011;22064;42.672;23.282;2024-02-26T09:55:54;14.93;;;6.90;;
35990;SDS011;22064;42.672;23.282;2024-02-26T09:58:19;14.50;;;6.68;;
35990;SDS011;22064;42.672;23.282;2024-02-26T10:00:56;11.73;;;6.68;;
35990;SDS011;22064;42.672;23.282;2024-02-26T10:03:34;14.95;;;7.38;;
35990;SDS011;22064;42.672;23.282;2024-02-26T10:06:19;14.38;;;7.35;;
35990;SDS011;22064;42.672;23.282;2024-02-26T10:09:29;13.88;;;7.43;;
35990;SDS011;22064;42.672;23.282;2024-02-26T10:12:03;14.95;;;7.65;;
35990;SDS011;22064;42.672;23.282;2024-02-26T10:14:41;16.38;;;7.60;;
35990;SDS011;22064;42.672;23.282;2024-02-26T10:17:10;11.55;;;6.68;;
35990;SDS011;22064;42.672;23.282;2024-02-26T10:19:52;10.77;;;6.38;;
35990;SDS011;22064;42.672;23.282;2024-02-26T10:22:32;10.73;;;6.70;;
35990;SDS011;22064;42.672;23.282;2024-02-26T10:25:01;12.43;;;6.82;;
35990;SDS011;22064;42.672;23.282;2024-02-26T10:27:42;16.08;;;7.53;;
35990;SDS011;22064;42.672;23.282;2024-02-26T10:30:31;12.70;;;7.40;;
35990;SDS011;22064;42.672;23.282;2024-02-26T10:32:59;16.63;;;8.00;;
35990;SDS011;22064;42.672;23.282;2024-02-26T10:35:33;14.57;;;7.15;;
35990;SDS011;22064;42.672;23.282;2024-02-26T10:38:07;11.63;;;7.28;;
35990;SDS011;22064;42.672;23.282;2024-02-26T10:40:48;16.02;;;7.90;;
35990;SDS011;22064;42.672;23.282;2024-02-26T10:43:21;14.98;;;7.30;;
35990;SDS011;22064;42.672;23.282;2024-02-26T10:45:49;11.63;;;7.20;;
35990;SDS011;22064;42.672;23.282;2024-02-26T10:48:22;13.73;;;7.80;;
35990;SDS011;22064;42.672;23.282;2024-02-26T10:50:53;13.20;;;7.13;;
35990;SDS011;22064;42.672;23.282;2024-02-26T10:53:23;13.00;;;7.03;;
35990;SDS011;22064;42.672;23.282;2024-02-26T10:56:22;18.00;;;8.27;;
35990;SDS011;22064;42.672;23.282;2024-02-26T10:58:59;12.27;;;7.32;;
35990;SDS011;22064;42.672;23.282;2024-02-26T11:01:38;14.25;;;7.53;;
35990;SDS011;22064;42.672;23.282;2024-02-26T11:04:16;11.38;;;7.90;;
35990;SDS011;22064;42.672;23.282;2024-02-26T11:07:05;14.25;;;7.40;;
35990;SDS011;22064;42.672;23.282;2024-02-26T11:10:03;11.52;;;7.15;;
35990;SDS011;22064;42.672;23.282;2024-02-26T11:12:36;15.25;;;8.02;;
35990;SDS011;22064;42.672;23.282;2024-02-26T11:15:10;11.32;;;7.28;;
35990;SDS011;22064;42.672;23.282;2024-02-26T11:17:54;12.70;;;7.25;;
35990;SDS011;22064;42.672;23.282;2024-02-26T11:20:24;13.07;;;7.43;;
35990;SDS011;22064;42.672;23.282;2024-02-26T11:23:09;14.55;;;7.45;;
35990;SDS011;22064;42.672;23.282;2024-02-26T11:25:35;12.25;;;7.10;;
35990;SDS011;22064;42.672;23.282;2024-02-26T11:28:14;11.18;;;6.93;;
35990;SDS011;22064;42.672;23.282;2024-02-26T11:30:46;13.40;;;7.35;;
35990;SDS011;22064;42.672;23.282;2024-02-26T11:33:31;13.60;;;7.70;;
35990;SDS011;22064;42.672;23.282;2024-02-26T11:36:19;12.40;;;7.13;;
35990;SDS011;22064;42.672;23.282;2024-02-26T11:39:04;12.98;;;7.90;;
35990;SDS011;22064;42.672;23.282;2024-02-26T11:42:23;13.13;;;7.55;;
35990;SDS011;22064;42.672;23.282;2024-02-26T11:48:11;11.32;;;7.22;;
35990;SDS011;22064;42.672;23.282;2024-02-26T11:50:52;12.73;;;7.45;;
35990;SDS011;22064;42.672;23.282;2024-02-26T11:53:27;15.90;;;8.02;;
35990;SDS011;22064;42.672;23.282;2024-02-26T11:56:23;10.90;;;7.40;;
35990;SDS011;22064;42.672;23.282;2024-02-26T11:59:03;10.32;;;7.15;;
35990;SDS011;22064;42.672;23.282;2024-02-26T12:01:46;13.60;;;7.53;;
35990;SDS011;22064;42.672;23.282;2024-02-26T12:04:23;10.35;;;7.25;;
35990;SDS011;22064;42.672;23.282;2024-02-26T12:07:06;16.55;;;7.65;;
35990;SDS011;22064;42.672;23.282;2024-02-26T12:09:37;13.05;;;7.10;;
35990;SDS011;22064;42.672;23.282;2024-02-26T12:12:17;12.50;;;6.85;;
35990;SDS011;22064;42.672;23.282;2024-02-26T12:15:00;10.90;;;7.18;;
35990;SDS011;22064;42.672;23.282;2024-02-26T12:17:39;12.60;;;7.43;;
35990;SDS011;22064;42.672;23.282;2024-02-26T12:20:16;12.52;;;7.53;;
35990;SDS011;22064;42.672;23.282;2024-02-26T12:22:49;13.43;;;7.53;;
35990;SDS011;22064;42.672;23.282;2024-02-26T12:25:27;16.02;;;8.38;;
35990;SDS011;22064;42.672;23.282;2024-02-26T12:27:55;14.30;;;7.78;;
35990;SDS011;22064;42.672;23.282;2024-02-26T12:30:26;11.32;;;7.70;;
35990;SDS011;22064;42.672;23.282;2024-02-26T12:33:00;12.88;;;8.07;;
35990;SDS011;22064;42.672;23.282;2024-02-26T12:35:32;11.38;;;8.38;;
35990;SDS011;22064;42.672;23.282;2024-02-26T12:38:08;11.85;;;7.72;;
35990;SDS011;22064;42.672;23.282;2024-02-26T12:40:55;13.30;;;8.15;;
35990;SDS011;22064;42.672;23.282;2024-02-26T12:43:31;11.48;;;8.13;;
35990;SDS011;22064;42.672;23.282;2024-02-26T12:46:03;11.70;;;7.70;;
35990;SDS011;22064;42.672;23.282;2024-02-26T12:48:35;16.45;;;7.97;;
35990;SDS011;22064;42.672;23.282;2024-02-26T12:51:16;10.20;;;7.10;;
35990;SDS011;22064;42.672;23.282;2024-02-26T12:53:49;13.32;;;7.82;;
35990;SDS011;22064;42.672;23.282;2024-02-26T12:56:18;15.63;;;8.90;;
35990;SDS011;22064;42.672;23.282;2024-02-26T12:58:52;13.90;;;8.32;;
35990;SDS011;22064;42.672;23.282;2024-02-26T13:01:39;12.18;;;8.10;;
35990;SDS011;22064;42.672;23.282;2024-02-26T13:04:13;9.55;;;7.97;;
35990;SDS011;22064;42.672;23.282;2024-02-26T13:06:59;12.93;;;8.07;;
35990;SDS011;22064;42.672;23.282;2024-02-26T13:09:34;12.90;;;8.02;;
35990;SDS011;22064;42.672;23.282;2024-02-26T13:12:07;15.35;;;8.80;;
35990;SDS011;22064;42.672;23.282;2024-02-26T13:15:23;9.60;;;7.78;;
35990;SDS011;22064;42.672;23.282;2024-02-26T13:17:52;13.35;;;8.95;;
35990;SDS011;22064;42.672;23.282;2024-02-26T13:20:37;14.55;;;9.23;;
35990;SDS011;22064;42.672;23.282;2024-02-26T13:23:07;13.65;;;8.10;;
35990;SDS011;22064;42.672;23.282;2024-02-26T13:25:48;11.80;;;8.35;;
35990;SDS011;22064;42.672;23.282;2024-02-26T13:28:34;11.82;;;8.77;;
35990;SDS011;22064;42.672;23.282;2024-02-26T13:31:00;12.63;;;8.95;;
35990;SDS011;22064;42.672;23.282;2024-02-26T13:33:41;13.32;;;9.35;;
35990;SDS011;22064;42.672;23.282;2024-02-26T13:36:10;12.18;;;8.35;;
35990;SDS011;22064;42.672;23.282;2024-02-26T13:38:54;11.93;;;8.93;;
35990;SDS011;22064;42.672;23.282;2024-02-26T13:41:27;12.00;;;9.30;;
35990;SDS011;22064;42.672;23.282;2024-02-26T13:43:59;14.95;;;8.73;;
35990;SDS011;22064;42.672;23.282;2024-02-26T13:46:54;13.55;;;9.93;;
35990;SDS011;22064;42.672;23.282;2024-02-26T13:49:31;11.15;;;8.82;;
35990;SDS011;22064;42.672;23.282;2024-02-26T13:52:04;12.30;;;8.77;;
35990;SDS011;22064;42.672;23.282;2024-02-26T13:54:33;12.93;;;8.52;;
35990;SDS011;22064;42.672;23.282;2024-02-26T13:57:06;15.07;;;11.02;;
35990;SDS011;22064;42.672;23.282;2024-02-26T13:59:46;12.02;;;8.68;;
35990;SDS011;22064;42.672;23.282;2024-02-26T14:02:13;13.73;;;9.52;;
35990;SDS011;22064;42.672;23.282;2024-02-26T14:04:43;11.35;;;8.60;;
35990;SDS011;22064;42.672;23.282;2024-02-26T14:07:34;9.85;;;8.75;;
35990;SDS011;22064;42.672;23.282;2024-02-26T14:10:21;12.57;;;8.68;;
35990;SDS011;22064;42.672;23.282;2024-02-26T14:12:54;12.70;;;9.40;;
35990;SDS011;22064;42.672;23.282;2024-02-26T14:15:43;16.35;;;8.88;;
35990;SDS011;22064;42.672;23.282;2024-02-26T14:18:15;12.10;;;8.60;;
35990;SDS011;22064;42.672;23.282;2024-02-26T14:21:03;12.10;;;8.40;;
35990;SDS011;22064;42.672;23.282;2024-02-26T14:23:37;13.07;;;8.80;;
35990;SDS011;22064;42.672;23.282;2024-02-26T14:26:09;12.73;;;8.90;;
35990;SDS011;22064;42.672;23.282;2024-02-26T14:28:39;12.97;;;8.47;;
35990;SDS011;22064;42.672;23.282;2024-02-26T14:31:18;15.98;;;9.45;;
35990;SDS011;22064;42.672;23.282;2024-02-26T14:34:27;10.85;;;8.77;;
35990;SDS011;22064;42.672;23.282;2024-02-26T14:36:55;12.65;;;8.50;;
35990;SDS011;22064;42.672;23.282;2024-02-26T14:39:38;18.05;;;8.88;;
35990;SDS011;22064;42.672;23.282;2024-02-26T14:42:11;11.45;;;8.90;;
35990;SDS011;22064;42.672;23.282;2024-02-26T14:44:45;14.63;;;9.35;;
35990;SDS011;22064;42.672;23.282;2024-02-26T14:47:30;13.32;;;9.50;;
35990;SDS011;22064;42.672;23.282;2024-02-26T14:50:07;10.50;;;8.68;;
35990;SDS011;22064;42.672;23.282;2024-02-26T14:53:03;11.13;;;8.93;;